Time;durP1;ratioP1;P1;durP2;ratioP2;P2;SDS_P1;SDS_P2;PMS_P1;PMS_P2;Temp;Humidity;BMP_temperature;BMP_pressure;BME280_temperature;BME280_humidity;BME280_pressure;Samples;Min_cycle;Max_cycle;Signal;HPM_P1;HPM_P2
2021/01/21 00:00:45;;;;;;;5.20;2.30;;;4.60;94.90;;;;;;5031579;28;20028;-44
2021/01/21 00:03:11;;;;;;;4.10;2.08;;;4.70;94.50;;;;;;5032672;28;20029;-45
2021/01/21 00:05:36;;;;;;;3.00;1.83;;;4.60;94.30;;;;;;5033432;28;20113;-43
2021/01/21 00:08:02;;;;;;;3.40;1.63;;;4.60;94.30;;;;;;5033375;28;20030;-46
2021/01/21 00:10:27;;;;;;;3.70;1.45;;;4.60;94.30;;;;;;5033062;28;20370;-48
2021/01/21 00:12:53;;;;;;;3.78;2.20;;;4.60;94.30;;;;;;5033184;28;20087;-46
2021/01/21 00:15:18;;;;;;;1.60;1.30;;;4.60;94.30;;;;;;5033476;28;20026;-48
2021/01/21 00:17:45;;;;;;;2.10;1.77;;;4.60;94.10;;;;;;5032066;28;20029;-44
2021/01/21 00:20:11;;;;;;;5.97;2.20;;;4.60;93.90;;;;;;5033205;28;20079;-46
2021/01/21 00:22:37;;;;;;;3.50;2.08;;;4.60;93.90;;;;;;5033240;28;20021;-43
2021/01/21 00:25:03;;;;;;;2.90;1.48;;;4.50;93.90;;;;;;5033946;28;20052;-45
2021/01/21 00:27:29;;;;;;;3.38;1.63;;;4.50;93.90;;;;;;5034042;28;20051;-45
2021/01/21 00:29:54;;;;;;;2.72;1.42;;;4.50;93.70;;;;;;5033982;28;20469;-43
2021/01/21 00:32:20;;;;;;;2.67;1.70;;;4.50;93.80;;;;;;5032813;28;20037;-45
2021/01/21 00:34:45;;;;;;;1.83;1.40;;;4.40;93.90;;;;;;5032647;28;20021;-44
2021/01/21 00:37:11;;;;;;;3.25;1.63;;;4.40;93.90;;;;;;5034054;28;20018;-43
2021/01/21 00:39:36;;;;;;;3.10;1.65;;;4.30;94.00;;;;;;5033960;28;20049;-48
2021/01/21 00:42:02;;;;;;;3.30;1.67;;;4.20;94.20;;;;;;5033633;28;20017;-46
2021/01/21 00:44:27;;;;;;;5.20;1.90;;;4.10;94.40;;;;;;5033637;28;20505;-48
2021/01/21 00:46:53;;;;;;;3.13;1.85;;;4.10;94.40;;;;;;5033650;28;20025;-45
2021/01/21 00:49:18;;;;;;;4.68;2.40;;;4.20;94.50;;;;;;5032641;28;20449;-46
2021/01/21 00:51:43;;;;;;;1.70;1.60;;;4.10;94.60;;;;;;5033331;28;20033;-45
2021/01/21 00:54:09;;;;;;;3.25;2.15;;;4.00;94.60;;;;;;5033414;28;20038;-45
2021/01/21 00:56:34;;;;;;;3.78;2.05;;;4.10;94.60;;;;;;5033368;28;20373;-44
2021/01/21 00:59:00;;;;;;;2.35;1.63;;;4.10;94.60;;;;;;5033410;28;20056;-43
2021/01/21 01:01:26;;;;;;;4.07;1.88;;;4.00;94.50;;;;;;5033342;28;20044;-43
2021/01/21 01:03:51;;;;;;;3.67;1.90;;;4.00;94.60;;;;;;5032273;28;20064;-44
2021/01/21 01:06:17;;;;;;;3.70;2.03;;;3.90;94.60;;;;;;5033342;28;20033;-45
2021/01/21 01:08:42;;;;;;;3.80;1.77;;;4.00;94.40;;;;;;5033105;28;20067;-44
2021/01/21 01:11:08;;;;;;;5.63;1.92;;;4.00;94.30;;;;;;5033154;28;20695;-45
2021/01/21 01:13:33;;;;;;;2.08;1.50;;;4.00;94.20;;;;;;5033129;28;20120;-43
2021/01/21 01:15:59;;;;;;;4.65;2.05;;;4.00;94.10;;;;;;5033169;28;20026;-44
2021/01/21 01:18:25;;;;;;;2.08;1.63;;;4.10;93.90;;;;;;5031961;28;20495;-45
2021/01/21 01:20:50;;;;;;;3.88;1.88;;;4.10;93.60;;;;;;5032328;28;20334;-45
2021/01/21 01:23:16;;;;;;;4.97;2.28;;;4.20;93.40;;;;;;5033100;28;20033;-43
2021/01/21 01:25:42;;;;;;;2.97;1.73;;;4.20;93.20;;;;;;5033007;28;20392;-47
2021/01/21 01:28:07;;;;;;;4.93;1.70;;;4.20;93.10;;;;;;5032790;28;20029;-45
2021/01/21 01:30:33;;;;;;;3.42;2.13;;;4.20;93.00;;;;;;5032961;28;20156;-46
2021/01/21 01:32:58;;;;;;;2.85;1.50;;;4.20;92.90;;;;;;5031735;28;20033;-44
2021/01/21 01:35:24;;;;;;;2.17;1.27;;;4.20;92.80;;;;;;5032909;28;20025;-44
2021/01/21 01:37:49;;;;;;;3.83;2.05;;;4.20;92.70;;;;;;5032716;28;20030;-45
2021/01/21 01:40:16;;;;;;;4.13;1.90;;;4.30;92.50;;;;;;5032829;28;20241;-42
2021/01/21 01:42:44;;;;;;;6.38;2.40;;;4.30;92.20;;;;;;5032481;28;20071;-47
2021/01/21 01:45:11;;;;;;;4.25;2.20;;;4.40;91.80;;;;;;5032604;28;20064;-44
2021/01/21 01:47:39;;;;;;;5.15;2.30;;;4.50;91.70;;;;;;5031739;28;20501;-45
2021/01/21 01:50:06;;;;;;;4.53;1.85;;;4.60;91.40;;;;;;5032379;28;20057;-44
2021/01/21 01:52:31;;;;;;;7.32;2.20;;;4.60;91.10;;;;;;5032411;28;20042;-43
2021/01/21 01:54:58;;;;;;;5.45;1.77;;;4.70;91.20;;;;;;5032662;28;20072;-46
2021/01/21 01:57:25;;;;;;;2.78;1.80;;;4.70;90.80;;;;;;5032553;28;20057;-46
2021/01/21 01:59:54;;;;;;;5.45;2.05;;;4.80;90.50;;;;;;5032337;28;20026;-47
2021/01/21 02:02:20;;;;;;;3.17;1.55;;;4.80;90.40;;;;;;5031616;28;20067;-45
2021/01/21 02:04:46;;;;;;;3.97;1.88;;;4.90;90.10;;;;;;5032351;28;20025;-44
2021/01/21 02:07:12;;;;;;;3.75;2.05;;;4.90;90.10;;;;;;5032559;28;20043;-47
2021/01/21 02:09:38;;;;;;;4.88;2.33;;;4.90;90.00;;;;;;5032341;28;20559;-43
2021/01/21 02:12:22;;;;;;;2.40;1.42;;;5.00;89.80;;;;;;5032335;28;20124;-44
2021/01/21 02:15:02;;;;;;;6.50;2.30;;;4.90;89.70;;;;;;5032117;28;20029;-46
2021/01/21 02:17:38;;;;;;;4.03;1.85;;;4.90;89.70;;;;;;5031529;28;20025;-48
2021/01/21 02:20:29;;;;;;;3.58;2.13;;;4.90;88.90;;;;;;5032104;28;20061;-47
2021/01/21 02:23:19;;;;;;;4.40;2.13;;;5.00;88.20;;;;;;5032126;28;20032;-46
2021/01/21 02:25:51;;;;;;;4.60;1.85;;;5.00;88.10;;;;;;5032320;28;20079;-43
2021/01/21 02:28:33;;;;;;;4.60;2.08;;;5.00;87.70;;;;;;5032138;28;20040;-50
2021/01/21 02:31:03;;;;;;;5.38;2.50;;;5.00;87.70;;;;;;5032131;28;20079;-46
2021/01/21 02:33:55;;;;;;;4.05;2.08;;;5.00;87.60;;;;;;5034388;28;20021;-45
2021/01/21 02:36:27;;;;;;;5.25;2.00;;;5.00;87.60;;;;;;5036223;28;20017;-43
2021/01/21 02:38:55;;;;;;;4.50;1.83;;;5.00;87.90;;;;;;5035957;28;20053;-48
2021/01/21 02:41:23;;;;;;;5.90;2.30;;;5.00;87.70;;;;;;5036095;28;20018;-43
2021/01/21 02:43:53;;;;;;;6.32;1.73;;;5.00;87.70;;;;;;5035572;28;20018;-43
2021/01/21 02:46:20;;;;;;;3.50;2.10;;;5.00;87.50;;;;;;5036054;28;20029;-46
2021/01/21 02:48:47;;;;;;;3.28;1.80;;;5.00;87.50;;;;;;5035165;28;20571;-47
2021/01/21 02:51:26;;;;;;;5.45;2.15;;;5.00;87.70;;;;;;5035683;28;20441;-43
2021/01/21 02:54:06;;;;;;;4.40;2.13;;;5.00;87.70;;;;;;5035531;28;20040;-47
2021/01/21 02:56:35;;;;;;;3.25;1.73;;;5.00;87.70;;;;;;5035763;28;20025;-45
2021/01/21 02:59:04;;;;;;;5.10;1.95;;;5.00;87.90;;;;;;5035429;28;20021;-45
2021/01/21 03:01:35;;;;;;;3.42;2.00;;;5.00;87.60;;;;;;5015900;28;20523;-43
2021/01/21 03:04:03;;;;;;;5.97;2.33;;;5.00;87.70;;;;;;5014773;28;20028;-44
2021/01/21 03:06:31;;;;;;;3.20;2.10;;;5.10;87.80;;;;;;5015847;28;20025;-47
2021/01/21 03:08:59;;;;;;;4.72;2.33;;;5.10;87.20;;;;;;5015419;28;20548;-48
2021/01/21 03:11:24;;;;;;;3.47;2.08;;;5.10;87.10;;;;;;5015713;28;20385;-42
2021/01/21 03:13:50;;;;;;;5.93;2.45;;;5.20;87.00;;;;;;5015374;28;20034;-43
2021/01/21 03:16:17;;;;;;;5.15;2.03;;;5.20;87.00;;;;;;5015646;28;20032;-44
2021/01/21 03:18:43;;;;;;;5.75;2.22;;;5.20;86.90;;;;;;5014688;28;20029;-44
2021/01/21 03:21:08;;;;;;;5.32;2.03;;;5.20;86.90;;;;;;5015336;28;20026;-42
2021/01/21 03:23:42;;;;;;;4.95;2.15;;;5.30;86.20;;;;;;5015411;28;20037;-43
2021/01/21 03:26:08;;;;;;;4.65;1.80;;;5.30;85.70;;;;;;5015385;28;20026;-44
2021/01/21 03:28:33;;;;;;;5.30;2.42;;;5.40;85.80;;;;;;5015499;28;20030;-43
2021/01/21 03:30:59;;;;;;;2.45;1.50;;;5.40;85.40;;;;;;5015054;28;20042;-44
2021/01/21 03:33:24;;;;;;;6.53;1.80;;;5.40;85.20;;;;;;5014341;28;20040;-43
2021/01/21 03:35:50;;;;;;;5.55;2.08;;;5.40;85.40;;;;;;5015148;28;20105;-43
2021/01/21 03:38:15;;;;;;;5.07;2.15;;;5.50;85.00;;;;;;5015193;28;20034;-42
2021/01/21 03:40:41;;;;;;;4.00;2.20;;;5.60;84.00;;;;;;5015179;28;20461;-45
2021/01/21 03:43:06;;;;;;;4.47;2.00;;;5.70;83.70;;;;;;5014920;28;20053;-44
2021/01/21 03:45:32;;;;;;;3.10;1.80;;;5.80;83.80;;;;;;5014467;28;20041;-45
2021/01/21 03:47:57;;;;;;;4.13;1.85;;;5.80;83.80;;;;;;5014207;28;20362;-44
2021/01/21 03:50:22;;;;;;;6.15;2.45;;;5.80;83.90;;;;;;5019721;28;20029;-43
2021/01/21 03:52:48;;;;;;;5.15;2.40;;;5.70;84.00;;;;;;5034316;28;20146;-44
2021/01/21 03:55:13;;;;;;;4.70;2.30;;;5.80;82.90;;;;;;5049892;28;20028;-46
2021/01/21 03:57:39;;;;;;;5.55;2.30;;;5.90;82.60;;;;;;5034735;28;20112;-46
2021/01/21 04:00:05;;;;;;;4.32;1.92;;;5.90;82.50;;;;;;5034314;28;20143;-46
2021/01/21 04:02:31;;;;;;;2.95;1.60;;;5.90;82.50;;;;;;5033899;28;20037;-42
2021/01/21 04:04:56;;;;;;;6.15;2.10;;;5.90;82.50;;;;;;5034366;28;20021;-44
2021/01/21 04:07:22;;;;;;;3.50;2.08;;;5.90;82.90;;;;;;5034386;28;20477;-43
2021/01/21 04:09:47;;;;;;;4.70;1.80;;;5.90;82.60;;;;;;5034252;28;20444;-48
2021/01/21 04:12:13;;;;;;;4.03;2.25;;;5.90;82.40;;;;;;5034249;28;20101;-46
2021/01/21 04:14:38;;;;;;;4.70;2.00;;;5.90;82.70;;;;;;5034179;28;20017;-44
2021/01/21 04:17:04;;;;;;;3.53;2.00;;;5.80;82.90;;;;;;5034153;28;20045;-45
2021/01/21 04:19:29;;;;;;;3.40;2.25;;;5.80;82.50;;;;;;5033208;28;20096;-46
2021/01/21 04:21:54;;;;;;;3.38;1.70;;;5.80;82.50;;;;;;5033947;28;20112;-47
2021/01/21 04:24:20;;;;;;;3.50;1.55;;;5.70;83.10;;;;;;5033969;28;20026;-47
2021/01/21 04:26:45;;;;;;;4.25;2.05;;;5.60;83.20;;;;;;5034123;28;20426;-44
2021/01/21 04:29:11;;;;;;;4.03;1.90;;;5.60;83.80;;;;;;5033834;28;20057;-44
2021/01/21 04:31:36;;;;;;;5.03;2.72;;;5.50;84.20;;;;;;5033806;28;20108;-44
2021/01/21 04:34:02;;;;;;;4.93;2.30;;;5.50;84.30;;;;;;5032859;28;20503;-45
2021/01/21 04:36:27;;;;;;;5.45;2.53;;;5.50;84.30;;;;;;5033704;28;20076;-43
2021/01/21 04:38:53;;;;;;;5.35;2.60;;;5.40;84.40;;;;;;5034151;28;20057;-47
2021/01/21 04:41:18;;;;;;;4.40;2.40;;;5.40;85.30;;;;;;5033576;28;20022;-45
2021/01/21 04:43:44;;;;;;;4.32;2.30;;;5.50;84.10;;;;;;5033757;28;20033;-43
2021/01/21 04:46:11;;;;;;;3.88;2.42;;;5.50;84.40;;;;;;5033334;28;20052;-42
2021/01/21 04:48:39;;;;;;;5.18;2.63;;;5.40;84.70;;;;;;5032896;28;20045;-46
2021/01/21 04:51:05;;;;;;;4.72;2.42;;;5.40;84.60;;;;;;5033134;28;20429;-44
2021/01/21 04:53:33;;;;;;;5.07;2.85;;;5.50;84.70;;;;;;5033460;28;20167;-46
2021/01/21 04:56:02;;;;;;;4.50;2.15;;;5.50;84.40;;;;;;5032481;28;20528;-43
2021/01/21 04:58:37;;;;;;;8.27;2.95;;;5.50;84.70;;;;;;5033408;28;20048;-44
2021/01/21 05:01:03;;;;;;;9.02;2.33;;;5.50;84.40;;;;;;5033114;28;20389;-47
2021/01/21 05:03:29;;;;;;;3.92;2.63;;;5.60;84.20;;;;;;5032492;28;20037;-43
2021/01/21 05:05:55;;;;;;;4.45;2.63;;;5.60;84.40;;;;;;5033183;28;20033;-42
2021/01/21 05:08:22;;;;;;;6.43;2.80;;;5.60;84.30;;;;;;5033258;28;20029;-46
2021/01/21 05:10:49;;;;;;;5.15;2.80;;;5.70;84.00;;;;;;5033038;28;20041;-44
2021/01/21 05:13:15;;;;;;;5.60;3.28;;;5.70;83.80;;;;;;5033079;28;20029;-45
2021/01/21 05:15:40;;;;;;;11.23;3.30;;;5.70;83.60;;;;;;5033099;28;20085;-45
2021/01/21 05:18:06;;;;;;;5.22;2.60;;;5.70;83.50;;;;;;5031973;28;20057;-44
2021/01/21 05:20:36;;;;;;;6.60;2.83;;;5.70;84.60;;;;;;5032985;28;20025;-45
2021/01/21 05:23:06;;;;;;;4.72;2.72;;;5.70;84.00;;;;;;5030830;28;20040;-44
2021/01/21 05:25:32;;;;;;;8.48;3.45;;;5.60;84.40;;;;;;5032847;28;20060;-48
2021/01/21 05:28:01;;;;;;;7.20;3.10;;;5.50;84.60;;;;;;5032908;28;20487;-42
2021/01/21 05:30:31;;;;;;;8.45;3.50;;;5.60;84.00;;;;;;5032568;28;20041;-43
2021/01/21 05:33:00;;;;;;;7.88;3.83;;;5.60;84.20;;;;;;5031701;28;20033;-42
2021/01/21 05:35:26;;;;;;;6.18;2.88;;;5.60;83.80;;;;;;5048013;28;20491;-42
2021/01/21 05:37:56;;;;;;;6.93;3.42;;;5.60;84.00;;;;;;5032922;28;20071;-43
2021/01/21 05:40:26;;;;;;;8.57;3.55;;;5.70;83.80;;;;;;5032591;28;20473;-42
2021/01/21 05:42:54;;;;;;;5.47;3.33;;;5.70;83.80;;;;;;5032715;28;20132;-42
2021/01/21 05:45:20;;;;;;;5.75;3.03;;;5.60;83.80;;;;;;5032351;28;20072;-45
2021/01/21 05:47:53;;;;;;;8.85;3.53;;;5.60;84.10;;;;;;5031651;28;20052;-43
2021/01/21 05:50:18;;;;;;;5.65;3.05;;;5.70;83.80;;;;;;5032343;28;20021;-43
2021/01/21 05:52:44;;;;;;;8.30;3.88;;;5.70;83.40;;;;;;5032424;28;20519;-44
2021/01/21 05:55:11;;;;;;;7.20;3.75;;;5.90;82.70;;;;;;5032410;28;20026;-44
2021/01/21 05:57:37;;;;;;;7.50;3.35;;;6.00;82.30;;;;;;5032222;28;20057;-44
2021/01/21 06:00:03;;;;;;;4.88;2.83;;;6.00;82.50;;;;;;5032298;28;20027;-45
2021/01/21 06:02:30;;;;;;;4.45;2.72;;;6.00;82.60;;;;;;5031326;28;20032;-44
2021/01/21 06:04:59;;;;;;;6.68;2.70;;;5.90;82.90;;;;;;5032456;28;20037;-44
2021/01/21 06:07:30;;;;;;;6.10;3.55;;;5.90;83.30;;;;;;5035600;28;20032;-47
2021/01/21 06:09:57;;;;;;;5.97;3.05;;;5.80;83.40;;;;;;5038908;28;20034;-44
2021/01/21 06:12:27;;;;;;;6.65;3.38;;;5.80;83.40;;;;;;5038578;28;20071;-45
2021/01/21 06:15:00;;;;;;;7.45;3.97;;;5.90;83.40;;;;;;5038996;28;20014;-44
2021/01/21 06:17:30;;;;;;;5.35;3.05;;;5.90;82.90;;;;;;5036670;28;20033;-47
2021/01/21 06:19:56;;;;;;;6.90;3.63;;;5.90;82.90;;;;;;5038865;28;20026;-44
2021/01/21 06:22:29;;;;;;;7.28;4.35;;;5.90;82.60;;;;;;5038827;28;20087;-44
2021/01/21 06:25:00;;;;;;;8.05;4.18;;;6.00;82.30;;;;;;5038795;28;20045;-42
2021/01/21 06:27:27;;;;;;;9.13;4.20;;;6.00;81.90;;;;;;5038897;28;20034;-45
2021/01/21 06:29:56;;;;;;;6.47;4.32;;;6.00;81.90;;;;;;5038981;28;20017;-45
2021/01/21 06:32:28;;;;;;;7.70;3.72;;;6.00;81.90;;;;;;5037820;28;20064;-45
2021/01/21 06:34:56;;;;;;;7.53;3.35;;;6.00;81.90;;;;;;5038810;28;20017;-44
2021/01/21 06:37:24;;;;;;;6.10;3.50;;;6.00;81.80;;;;;;5038773;28;20029;-46
2021/01/21 06:40:08;;;;;;;7.20;3.22;;;6.10;81.30;;;;;;5038875;28;20024;-46
2021/01/21 06:42:42;;;;;;;5.32;3.30;;;6.20;80.80;;;;;;5037517;28;20116;-47
2021/01/21 06:45:08;;;;;;;6.10;3.90;;;6.20;80.50;;;;;;5038733;28;20027;-48
2021/01/21 06:47:34;;;;;;;6.85;3.95;;;6.30;80.40;;;;;;5037679;28;20034;-47
2021/01/21 06:50:02;;;;;;;8.70;3.60;;;6.30;80.10;;;;;;5038449;28;20029;-44
2021/01/21 06:52:35;;;;;;;8.00;4.63;;;6.30;80.10;;;;;;5038295;28;20045;-45
2021/01/21 06:55:03;;;;;;;9.43;4.22;;;6.40;79.80;;;;;;5038767;28;20051;-43
2021/01/21 06:57:38;;;;;;;6.10;3.92;;;6.40;79.40;;;;;;5038556;28;20389;-47
2021/01/21 07:00:36;;;;;;;5.57;3.43;;;6.50;78.80;;;;;;5033410;28;20025;-46
2021/01/21 07:03:02;;;;;;;6.90;3.90;;;6.40;79.10;;;;;;5057036;28;20067;-47
2021/01/21 07:05:28;;;;;;;6.70;3.70;;;6.40;79.40;;;;;;5057693;28;20507;-48
2021/01/21 07:07:59;;;;;;;6.55;3.80;;;6.40;79.40;;;;;;5058510;28;20056;-48
2021/01/21 07:10:45;;;;;;;7.15;3.90;;;6.30;80.40;;;;;;5058222;28;20121;-45
2021/01/21 07:13:17;;;;;;;6.03;3.03;;;6.30;80.00;;;;;;5058106;28;20171;-44
2021/01/21 07:15:48;;;;;;;7.07;3.55;;;6.40;79.70;;;;;;5058440;28;20025;-44
2021/01/21 07:18:24;;;;;;;7.40;3.58;;;6.40;79.70;;;;;;5056078;28;20025;-43
2021/01/21 07:21:09;;;;;;;8.27;4.00;;;6.40;79.50;;;;;;5055244;28;20047;-46
2021/01/21 07:23:42;;;;;;;7.15;3.42;;;6.40;79.10;;;;;;5054819;28;20029;-48
2021/01/21 07:26:27;;;;;;;6.10;3.97;;;6.50;79.20;;;;;;5055061;28;20057;-49
2021/01/21 07:28:58;;;;;;;7.90;4.18;;;6.50;79.20;;;;;;5055073;28;20028;-45
2021/01/21 07:31:28;;;;;;;5.82;3.42;;;6.60;78.60;;;;;;5054672;28;20075;-47
2021/01/21 07:34:22;;;;;;;5.95;3.60;;;6.60;78.80;;;;;;5053784;28;20044;-46
2021/01/21 07:37:15;;;;;;;8.82;4.05;;;6.70;78.40;;;;;;5054837;28;20029;-44
2021/01/21 07:39:54;;;;;;;5.78;3.63;;;6.70;78.60;;;;;;5054783;28;20017;-46
2021/01/21 07:42:22;;;;;;;6.85;3.53;;;6.70;78.10;;;;;;5054409;28;20048;-43
2021/01/21 07:44:59;;;;;;;7.53;4.40;;;6.80;78.00;;;;;;5054752;28;20025;-42
2021/01/21 07:47:35;;;;;;;6.50;4.15;;;6.90;77.60;;;;;;5053171;28;20141;-42
2021/01/21 07:50:19;;;;;;;5.85;4.00;;;6.90;77.50;;;;;;5052422;28;20027;-42
2021/01/21 07:52:50;;;;;;;7.57;4.07;;;7.00;77.40;;;;;;5034172;28;20091;-43
2021/01/21 07:55:27;;;;;;;3.95;2.67;;;7.00;77.60;;;;;;5034435;28;20109;-43
2021/01/21 07:57:53;;;;;;;4.25;3.15;;;7.00;77.30;;;;;;5034615;28;20018;-42
2021/01/21 08:00:19;;;;;;;6.88;3.15;;;7.10;76.50;;;;;;5034295;28;20029;-44
2021/01/21 08:02:49;;;;;;;3.67;2.53;;;7.10;77.10;;;;;;5033222;28;20373;-46
2021/01/21 08:05:17;;;;;;;4.97;3.05;;;7.10;77.40;;;;;;5034345;28;20381;-43
2021/01/21 08:07:49;;;;;;;9.65;3.63;;;7.10;77.10;;;;;;5034552;28;20033;-44
2021/01/21 08:10:21;;;;;;;6.28;2.90;;;7.30;76.40;;;;;;5034519;28;20031;-46
2021/01/21 08:12:56;;;;;;;6.68;3.72;;;7.40;75.90;;;;;;5034177;28;20112;-44
2021/01/21 08:15:23;;;;;;;5.28;3.00;;;7.50;75.60;;;;;;5034300;28;20104;-47
2021/01/21 08:17:50;;;;;;;7.80;3.17;;;7.60;75.40;;;;;;5032786;28;20419;-45
2021/01/21 08:20:17;;;;;;;6.35;3.33;;;7.60;75.20;;;;;;5034240;28;20029;-44
2021/01/21 08:22:58;;;;;;;5.05;2.78;;;7.70;75.20;;;;;;5032765;28;20025;-44
2021/01/21 08:25:25;;;;;;;6.72;3.08;;;7.70;75.30;;;;;;5034080;28;20022;-46
2021/01/21 08:27:51;;;;;;;4.43;2.60;;;7.80;74.80;;;;;;5034140;28;20041;-44
2021/01/21 08:30:21;;;;;;;5.82;2.78;;;7.80;75.10;;;;;;5033880;28;20017;-45
2021/01/21 08:33:11;;;;;;;4.63;3.08;;;7.70;75.40;;;;;;5032507;28;20080;-46
2021/01/21 08:35:47;;;;;;;8.05;3.33;;;7.70;74.90;;;;;;5033201;28;20041;-47
2021/01/21 08:38:16;;;;;;;4.90;2.97;;;7.80;74.60;;;;;;5034033;28;20025;-44
2021/01/21 08:40:43;;;;;;;5.07;2.80;;;8.00;74.60;;;;;;5033596;28;20485;-45
2021/01/21 08:43:09;;;;;;;4.85;3.00;;;8.00;74.70;;;;;;5033743;28;20469;-44
2021/01/21 08:45:35;;;;;;;6.13;3.28;;;8.60;73.70;;;;;;5033717;28;20120;-43
2021/01/21 08:48:01;;;;;;;3.45;2.35;;;9.20;72.00;;;;;;5032446;28;20491;-46
2021/01/21 08:50:36;;;;;;;4.60;2.72;;;9.80;70.20;;;;;;5033598;28;20113;-44
2021/01/21 08:53:10;;;;;;;4.10;2.63;;;10.20;67.90;;;;;;5033008;28;20436;-44
2021/01/21 08:55:48;;;;;;;5.35;3.03;;;10.60;67.30;;;;;;5033562;28;20025;-43
2021/01/21 08:58:16;;;;;;;4.63;2.85;;;10.90;66.60;;;;;;5033544;28;20488;-46
2021/01/21 09:01:04;;;;;;;7.47;3.30;;;11.20;65.70;;;;;;5033398;28;20045;-46
2021/01/21 09:03:48;;;;;;;6.53;2.50;;;11.40;63.70;;;;;;5031839;28;20092;-44
2021/01/21 09:06:16;;;;;;;14.93;4.00;;;11.70;63.30;;;;;;5033255;28;20374;-42
2021/01/21 09:08:50;;;;;;;3.88;2.05;;;11.40;63.70;;;;;;5033511;28;20072;-44
2021/01/21 09:11:32;;;;;;;5.47;2.88;;;11.20;65.00;;;;;;5033173;28;20040;-44
2021/01/21 09:14:02;;;;;;;5.50;3.22;;;11.10;64.60;;;;;;5033118;28;20037;-44
2021/01/21 09:16:46;;;;;;;7.50;2.97;;;11.10;64.30;;;;;;5033119;28;20429;-49
2021/01/21 09:19:36;;;;;;;5.13;2.95;;;11.20;63.90;;;;;;5031826;28;20026;-47
2021/01/21 09:22:04;;;;;;;4.70;3.15;;;11.40;63.70;;;;;;5032772;28;20098;-45
2021/01/21 09:24:31;;;;;;;4.45;3.08;;;11.50;63.70;;;;;;5030301;28;20065;-44
2021/01/21 09:27:14;;;;;;;4.88;2.63;;;11.50;62.90;;;;;;5032948;28;20025;-48
2021/01/21 09:29:50;;;;;;;4.35;2.80;;;11.50;62.60;;;;;;5032955;28;20049;-47
2021/01/21 09:32:18;;;;;;;;;;;11.50;62.40;;;;;;5032356;28;20459;-44
2021/01/21 09:34:58;;;;;;;4.05;3.00;;;11.50;62.60;;;;;;5032810;28;19913;-42
2021/01/21 09:37:29;;;;;;;4.28;2.58;;;11.40;63.10;;;;;;5047903;28;20041;-44
2021/01/21 09:39:55;;;;;;;7.53;3.28;;;11.50;63.20;;;;;;5032830;28;20033;-45
2021/01/21 09:42:22;;;;;;;4.78;2.47;;;11.50;63.00;;;;;;5032136;28;20021;-45
2021/01/21 09:44:48;;;;;;;4.35;2.40;;;11.60;63.20;;;;;;5032465;28;20061;-46
2021/01/21 09:47:14;;;;;;;5.07;2.35;;;11.60;63.20;;;;;;5031431;28;20060;-47
2021/01/21 09:49:41;;;;;;;5.75;3.10;;;11.60;63.50;;;;;;5032293;28;20465;-46
2021/01/21 09:52:07;;;;;;;6.20;3.25;;;11.60;62.50;;;;;;5032497;28;20049;-44
2021/01/21 09:54:33;;;;;;;4.25;2.72;;;11.70;61.70;;;;;;5032451;28;20515;-44
2021/01/21 09:56:59;;;;;;;3.95;2.55;;;11.70;62.40;;;;;;5032595;28;20022;-44
2021/01/21 09:59:24;;;;;;;4.85;2.95;;;11.80;61.90;;;;;;5032790;28;20399;-42
2021/01/21 10:01:51;;;;;;;4.88;2.35;;;11.80;61.50;;;;;;5032064;28;20029;-47
2021/01/21 10:04:17;;;;;;;5.35;2.80;;;11.90;62.00;;;;;;5031477;28;20033;-44
2021/01/21 10:06:42;;;;;;;2.60;1.95;;;12.00;61.90;;;;;;5034427;28;20023;-42
2021/01/21 10:09:08;;;;;;;5.10;2.83;;;12.10;62.50;;;;;;5051902;28;20060;-44
2021/01/21 10:11:34;;;;;;;4.15;2.22;;;12.20;62.20;;;;;;5051982;28;20033;-43
2021/01/21 10:14:00;;;;;;;4.55;2.83;;;12.20;61.60;;;;;;5052082;28;20044;-44
2021/01/21 10:16:27;;;;;;;5.22;2.55;;;12.20;61.60;;;;;;5052028;28;20112;-43
2021/01/21 10:18:52;;;;;;;4.97;2.38;;;12.10;60.30;;;;;;5050930;28;20117;-43
2021/01/21 10:21:18;;;;;;;4.20;2.08;;;12.10;61.20;;;;;;5052184;28;20422;-47
2021/01/21 10:23:43;;;;;;;4.63;2.47;;;12.10;61.40;;;;;;5051781;28;20032;-48
2021/01/21 10:26:09;;;;;;;5.15;2.38;;;12.30;61.00;;;;;;5052071;28;20502;-44
2021/01/21 10:28:34;;;;;;;5.50;2.35;;;12.30;60.70;;;;;;5051844;28;20033;-46
2021/01/21 10:31:00;;;;;;;3.78;2.38;;;12.20;60.60;;;;;;5067442;28;20415;-45
2021/01/21 10:33:25;;;;;;;3.70;2.55;;;12.10;61.00;;;;;;5050967;28;20033;-47
2021/01/21 10:35:51;;;;;;;2.88;2.05;;;12.20;60.80;;;;;;5051843;28;20017;-45
2021/01/21 10:38:16;;;;;;;4.93;2.30;;;12.20;60.60;;;;;;5051778;28;20033;-44
2021/01/21 10:40:42;;;;;;;3.00;2.30;;;12.30;60.40;;;;;;5051725;28;20029;-45
2021/01/21 10:43:07;;;;;;;4.80;2.53;;;12.40;60.40;;;;;;5051866;28;20029;-45
2021/01/21 10:45:33;;;;;;;4.88;2.65;;;12.60;60.30;;;;;;5051898;28;20037;-45
2021/01/21 10:47:59;;;;;;;2.78;1.80;;;12.70;59.90;;;;;;5050748;28;20029;-43
2021/01/21 10:50:24;;;;;;;2.83;1.83;;;12.80;60.80;;;;;;5046700;28;20021;-46
2021/01/21 10:52:50;;;;;;;3.78;2.22;;;13.00;61.30;;;;;;5031441;28;20041;-44
2021/01/21 10:55:15;;;;;;;4.75;2.08;;;12.90;59.10;;;;;;5034449;28;20034;-44
2021/01/21 10:57:41;;;;;;;5.13;2.20;;;12.80;60.10;;;;;;5035647;28;20499;-44
2021/01/21 11:00:06;;;;;;;7.45;2.35;;;12.90;59.70;;;;;;5035775;28;20048;-44
2021/01/21 11:02:32;;;;;;;3.47;1.95;;;12.80;59.50;;;;;;5034326;28;20388;-47
2021/01/21 11:04:57;;;;;;;2.88;1.73;;;12.80;60.20;;;;;;5035722;28;20031;-45
2021/01/21 11:07:23;;;;;;;3.78;2.08;;;12.80;61.00;;;;;;5035577;28;20457;-45
2021/01/21 11:09:48;;;;;;;5.68;2.17;;;12.70;61.30;;;;;;5034918;28;20029;-44
2021/01/21 11:12:16;;;;;;;4.75;2.10;;;12.60;61.00;;;;;;5035288;28;20381;-45
2021/01/21 11:14:42;;;;;;;3.85;2.25;;;12.50;61.50;;;;;;5035405;28;20396;-44
2021/01/21 11:17:07;;;;;;;3.13;2.00;;;12.50;60.90;;;;;;5034312;28;20025;-46
2021/01/21 11:19:33;;;;;;;4.60;2.15;;;12.70;60.70;;;;;;5035486;28;20031;-48
2021/01/21 11:21:58;;;;;;;5.30;2.47;;;12.80;59.50;;;;;;5035215;28;20029;-45
2021/01/21 11:24:24;;;;;;;4.93;2.58;;;12.90;59.70;;;;;;5035311;28;20506;-48
2021/01/21 11:26:49;;;;;;;3.25;2.17;;;12.90;59.20;;;;;;5035227;28;20105;-44
2021/01/21 11:29:15;;;;;;;4.05;2.00;;;12.90;59.40;;;;;;5035329;28;20049;-49
2021/01/21 11:31:40;;;;;;;4.45;2.20;;;12.90;59.50;;;;;;5035037;28;20029;-45
2021/01/21 11:34:06;;;;;;;4.57;2.13;;;12.90;59.20;;;;;;5034072;28;20036;-44
2021/01/21 11:36:32;;;;;;;3.33;2.17;;;12.80;59.30;;;;;;5033998;28;20423;-48
2021/01/21 11:38:57;;;;;;;4.57;2.00;;;12.80;60.40;;;;;;5034955;28;20053;-45
2021/01/21 11:41:23;;;;;;;5.47;2.00;;;12.80;59.80;;;;;;5035001;28;20350;-43
2021/01/21 11:43:48;;;;;;;3.75;1.98;;;12.70;60.00;;;;;;5034753;28;20030;-46
2021/01/21 11:46:14;;;;;;;3.15;1.80;;;12.70;60.70;;;;;;5035055;28;20037;-46
2021/01/21 11:48:39;;;;;;;2.95;2.05;;;12.70;60.40;;;;;;5033838;28;20083;-45
2021/01/21 11:51:05;;;;;;;2.10;1.42;;;12.90;59.60;;;;;;5034710;28;20377;-44
2021/01/21 11:53:31;;;;;;;2.13;1.60;;;13.00;60.30;;;;;;5034511;28;20084;-49
2021/01/21 11:55:57;;;;;;;1.88;1.23;;;13.10;60.00;;;;;;5034474;28;20053;-43
2021/01/21 11:58:22;;;;;;;3.60;1.90;;;13.20;60.30;;;;;;5049989;28;20021;-45
2021/01/21 12:00:48;;;;;;;1.80;1.40;;;13.30;60.00;;;;;;5034297;28;20473;-44
2021/01/21 12:03:13;;;;;;;1.92;1.30;;;13.40;59.70;;;;;;5033537;28;20033;-43
2021/01/21 12:05:39;;;;;;;2.35;1.48;;;13.50;59.50;;;;;;5032839;28;20021;-45
2021/01/21 12:08:05;;;;;;;2.63;1.52;;;13.50;59.30;;;;;;5034349;28;20063;-50
2021/01/21 12:10:30;;;;;;;2.80;1.92;;;13.50;59.40;;;;;;5049759;28;20021;-45
2021/01/21 12:12:56;;;;;;;5.30;2.30;;;13.50;58.70;;;;;;5034211;28;20029;-42
2021/01/21 12:15:22;;;;;;;5.03;2.00;;;13.50;58.50;;;;;;5034344;28;20032;-43
2021/01/21 12:17:47;;;;;;;4.10;1.75;;;13.50;59.10;;;;;;5033115;28;20025;-46
2021/01/21 12:20:13;;;;;;;2.95;1.55;;;13.50;59.00;;;;;;5034356;28;20472;-45
2021/01/21 12:22:41;;;;;;;3.65;1.50;;;13.50;59.70;;;;;;5034133;28;20105;-43
2021/01/21 12:25:07;;;;;;;1.95;1.42;;;13.50;59.60;;;;;;5033006;28;20028;-46
2021/01/21 12:27:32;;;;;;;8.85;2.15;;;13.50;59.50;;;;;;5033566;28;20048;-45
2021/01/21 12:29:58;;;;;;;1.70;1.30;;;13.40;59.20;;;;;;5033669;28;20472;-44
2021/01/21 12:32:23;;;;;;;2.28;1.20;;;13.40;59.80;;;;;;5032537;28;20481;-45
2021/01/21 12:34:49;;;;;;;3.00;1.70;;;13.40;59.50;;;;;;5033685;28;20034;-45
2021/01/21 12:37:14;;;;;;;3.38;1.27;;;13.30;59.50;;;;;;5034360;28;20028;-45
2021/01/21 12:39:40;;;;;;;2.97;1.73;;;13.20;60.20;;;;;;5033906;28;20049;-46
2021/01/21 12:42:05;;;;;;;4.65;1.00;;;13.20;60.30;;;;;;5033680;28;20393;-45
2021/01/21 12:44:31;;;;;;;3.65;1.92;;;13.10;60.60;;;;;;5033664;28;20037;-48
2021/01/21 12:46:56;;;;;;;3.03;2.03;;;13.10;60.70;;;;;;5032785;28;20073;-45
2021/01/21 12:49:22;;;;;;;2.60;1.80;;;13.00;61.00;;;;;;5033645;28;20033;-47
2021/01/21 12:51:48;;;;;;;2.28;1.33;;;13.00;61.30;;;;;;5033386;28;20068;-46
2021/01/21 12:54:13;;;;;;;3.78;1.17;;;12.90;61.40;;;;;;5033194;28;20120;-48
2021/01/21 12:56:39;;;;;;;3.63;1.40;;;12.80;62.00;;;;;;5033416;28;20028;-45
2021/01/21 12:59:04;;;;;;;3.22;1.77;;;12.80;61.80;;;;;;5033298;28;20381;-46